sensor_id;sensor_type;location;lat;lon;timestamp;temperature;humidity
70830;SHT30;58451;51.550;7.208;2023-05-20T00:01:18;12.32;56.43
70830;SHT30;58451;51.550;7.208;2023-05-20T00:02:50;12.30;56.52
70830;SHT30;58451;51.550;7.208;2023-05-20T00:04:22;12.27;56.60
70830;SHT30;58451;51.550;7.208;2023-05-20T00:05:54;12.24;56.68
70830;SHT30;58451;51.550;7.208;2023-05-20T00:07:26;12.22;56.85
70830;SHT30;58451;51.550;7.208;2023-05-20T00:08:58;12.20;57.03
70830;SHT30;58451;51.550;7.208;2023-05-20T00:10:30;12.18;57.17
70830;SHT30;58451;51.550;7.208;2023-05-20T00:12:03;12.15;57.33
70830;SHT30;58451;51.550;7.208;2023-05-20T00:13:35;12.13;57.45
70830;SHT30;58451;51.550;7.208;2023-05-20T00:15:08;12.10;57.55
70830;SHT30;58451;51.550;7.208;2023-05-20T00:16:42;12.07;57.70
70830;SHT30;58451;51.550;7.208;2023-05-20T00:18:14;12.06;57.80
70830;SHT30;58451;51.550;7.208;2023-05-20T00:19:46;12.04;58.02
70830;SHT30;58451;51.550;7.208;2023-05-20T00:21:17;12.02;58.05
70830;SHT30;58451;51.550;7.208;2023-05-20T00:22:50;12.01;58.13
70830;SHT30;58451;51.550;7.208;2023-05-20T00:24:21;11.98;58.25
70830;SHT30;58451;51.550;7.208;2023-05-20T00:25:53;11.98;58.40
70830;SHT30;58451;51.550;7.208;2023-05-20T00:27:25;11.95;58.40
70830;SHT30;58451;51.550;7.208;2023-05-20T00:28:57;11.95;58.57
70830;SHT30;58451;51.550;7.208;2023-05-20T00:30:29;11.91;58.58
70830;SHT30;58451;51.550;7.208;2023-05-20T00:32:01;11.89;58.65
70830;SHT30;58451;51.550;7.208;2023-05-20T00:33:33;11.88;58.72
70830;SHT30;58451;51.550;7.208;2023-05-20T00:35:06;11.88;58.85
70830;SHT30;58451;51.550;7.208;2023-05-20T00:36:39;11.86;58.90
70830;SHT30;58451;51.550;7.208;2023-05-20T00:38:11;11.85;58.92
70830;SHT30;58451;51.550;7.208;2023-05-20T00:39:43;11.82;58.98
70830;SHT30;58451;51.550;7.208;2023-05-20T00:41:15;11.80;58.95
70830;SHT30;58451;51.550;7.208;2023-05-20T00:42:47;11.79;58.98
70830;SHT30;58451;51.550;7.208;2023-05-20T00:44:19;11.78;59.12
70830;SHT30;58451;51.550;7.208;2023-05-20T00:45:54;11.76;59.18
70830;SHT30;58451;51.550;7.208;2023-05-20T00:47:27;11.74;59.23
70830;SHT30;58451;51.550;7.208;2023-05-20T00:49:04;11.73;59.32
70830;SHT30;58451;51.550;7.208;2023-05-20T00:50:36;11.70;59.48
70830;SHT30;58451;51.550;7.208;2023-05-20T00:52:09;11.69;59.43
70830;SHT30;58451;51.550;7.208;2023-05-20T00:53:42;11.67;59.57
70830;SHT30;58451;51.550;7.208;2023-05-20T00:55:14;11.66;59.55
70830;SHT30;58451;51.550;7.208;2023-05-20T00:56:46;11.66;59.65
70830;SHT30;58451;51.550;7.208;2023-05-20T00:58:18;11.63;59.75
70830;SHT30;58451;51.550;7.208;2023-05-20T00:59:50;11.61;59.75
70830;SHT30;58451;51.550;7.208;2023-05-20T01:01:22;11.60;59.85
70830;SHT30;58451;51.550;7.208;2023-05-20T01:02:54;11.59;60.43
70830;SHT30;58451;51.550;7.208;2023-05-20T01:04:28;11.57;60.18
70830;SHT30;58451;51.550;7.208;2023-05-20T01:06:01;11.57;60.12
70830;SHT30;58451;51.550;7.208;2023-05-20T01:07:33;11.55;60.25
70830;SHT30;58451;51.550;7.208;2023-05-20T01:09:06;11.53;60.33
70830;SHT30;58451;51.550;7.208;2023-05-20T01:10:40;11.53;60.35
70830;SHT30;58451;51.550;7.208;2023-05-20T01:12:18;11.53;60.33
70830;SHT30;58451;51.550;7.208;2023-05-20T01:13:54;11.51;60.35
70830;SHT30;58451;51.550;7.208;2023-05-20T01:15:33;11.49;60.53
70830;SHT30;58451;51.550;7.208;2023-05-20T01:17:06;11.49;60.78
70830;SHT30;58451;51.550;7.208;2023-05-20T01:18:43;11.47;60.68
70830;SHT30;58451;51.550;7.208;2023-05-20T01:20:19;11.46;61.07
70830;SHT30;58451;51.550;7.208;2023-05-20T01:21:52;11.46;60.92
70830;SHT30;58451;51.550;7.208;2023-05-20T01:23:33;11.44;60.82
70830;SHT30;58451;51.550;7.208;2023-05-20T01:25:12;11.43;60.82
70830;SHT30;58451;51.550;7.208;2023-05-20T01:26:43;11.40;60.87
70830;SHT30;58451;51.550;7.208;2023-05-20T01:28:18;11.39;60.88
70830;SHT30;58451;51.550;7.208;2023-05-20T01:29:50;11.37;60.98
70830;SHT30;58451;51.550;7.208;2023-05-20T01:31:24;11.36;61.07
70830;SHT30;58451;51.550;7.208;2023-05-20T01:33:04;11.35;61.13
70830;SHT30;58451;51.550;7.208;2023-05-20T01:34:41;11.31;61.18
70830;SHT30;58451;51.550;7.208;2023-05-20T01:36:15;11.31;61.30
70830;SHT30;58451;51.550;7.208;2023-05-20T01:37:51;11.30;61.35
70830;SHT30;58451;51.550;7.208;2023-05-20T01:39:25;11.29;61.37
70830;SHT30;58451;51.550;7.208;2023-05-20T01:40:58;11.28;61.58
70830;SHT30;58451;51.550;7.208;2023-05-20T01:42:31;11.26;61.57
70830;SHT30;58451;51.550;7.208;2023-05-20T01:44:06;11.27;61.67
70830;SHT30;58451;51.550;7.208;2023-05-20T01:45:40;11.26;61.82
70830;SHT30;58451;51.550;7.208;2023-05-20T01:47:12;11.25;61.92
70830;SHT30;58451;51.550;7.208;2023-05-20T01:48:45;11.24;61.92
70830;SHT30;58451;51.550;7.208;2023-05-20T01:50:17;11.24;62.05
70830;SHT30;58451;51.550;7.208;2023-05-20T01:51:49;11.25;62.43
70830;SHT30;58451;51.550;7.208;2023-05-20T01:53:20;11.24;62.50
70830;SHT30;58451;51.550;7.208;2023-05-20T01:54:52;11.24;62.57
70830;SHT30;58451;51.550;7.208;2023-05-20T01:56:25;11.24;62.37
70830;SHT30;58451;51.550;7.208;2023-05-20T01:57:57;11.24;62.30
70830;SHT30;58451;51.550;7.208;2023-05-20T01:59:31;11.22;62.37
70830;SHT30;58451;51.550;7.208;2023-05-20T02:01:03;11.21;62.25
70830;SHT30;58451;51.550;7.208;2023-05-20T02:02:35;11.19;62.27
70830;SHT30;58451;51.550;7.208;2023-05-20T02:04:07;11.16;62.30
70830;SHT30;58451;51.550;7.208;2023-05-20T02:05:39;11.15;62.32
70830;SHT30;58451;51.550;7.208;2023-05-20T02:07:12;11.14;62.33
70830;SHT30;58451;51.550;7.208;2023-05-20T02:08:46;11.11;62.37
70830;SHT30;58451;51.550;7.208;2023-05-20T02:10:18;11.10;62.38
70830;SHT30;58451;51.550;7.208;2023-05-20T02:11:49;11.09;62.48
70830;SHT30;58451;51.550;7.208;2023-05-20T02:13:21;11.07;62.52
70830;SHT30;58451;51.550;7.208;2023-05-20T02:14:53;11.06;62.63
70830;SHT30;58451;51.550;7.208;2023-05-20T02:16:26;11.05;62.63
70830;SHT30;58451;51.550;7.208;2023-05-20T02:17:58;11.04;62.73
70830;SHT30;58451;51.550;7.208;2023-05-20T02:19:30;11.03;62.83
70830;SHT30;58451;51.550;7.208;2023-05-20T02:21:03;11.02;63.13
70830;SHT30;58451;51.550;7.208;2023-05-20T02:22:36;11.01;63.08
70830;SHT30;58451;51.550;7.208;2023-05-20T02:24:08;11.02;63.02
70830;SHT30;58451;51.550;7.208;2023-05-20T02:25:40;11.00;63.02
70830;SHT30;58451;51.550;7.208;2023-05-20T02:27:13;10.98;63.00
70830;SHT30;58451;51.550;7.208;2023-05-20T02:28:45;10.97;63.10
70830;SHT30;58451;51.550;7.208;2023-05-20T02:30:21;10.95;63.15
70830;SHT30;58451;51.550;7.208;2023-05-20T02:31:53;10.94;63.20
70830;SHT30;58451;51.550;7.208;2023-05-20T02:33:25;10.93;63.23
70830;SHT30;58451;51.550;7.208;2023-05-20T02:34:59;10.91;63.30
70830;SHT30;58451;51.550;7.208;2023-05-20T02:36:31;10.88;63.35
70830;SHT30;58451;51.550;7.208;2023-05-20T02:38:04;10.87;63.63
70830;SHT30;58451;51.550;7.208;2023-05-20T02:39:38;10.86;63.47
70830;SHT30;58451;51.550;7.208;2023-05-20T02:41:10;10.85;63.63
70830;SHT30;58451;51.550;7.208;2023-05-20T02:42:41;10.83;63.78
70830;SHT30;58451;51.550;7.208;2023-05-20T02:44:13;10.82;63.85
70830;SHT30;58451;51.550;7.208;2023-05-20T02:45:45;10.80;63.82
70830;SHT30;58451;51.550;7.208;2023-05-20T02:47:19;10.78;63.82
70830;SHT30;58451;51.550;7.208;2023-05-20T02:48:51;10.78;63.83
70830;SHT30;58451;51.550;7.208;2023-05-20T02:50:23;10.77;63.93
70830;SHT30;58451;51.550;7.208;2023-05-20T02:51:55;10.76;63.95
70830;SHT30;58451;51.550;7.208;2023-05-20T02:53:27;10.75;64.07
70830;SHT30;58451;51.550;7.208;2023-05-20T02:54:59;10.74;64.17
70830;SHT30;58451;51.550;7.208;2023-05-20T02:56:31;10.72;64.30
70830;SHT30;58451;51.550;7.208;2023-05-20T02:58:05;10.73;64.28
70830;SHT30;58451;51.550;7.208;2023-05-20T02:59:37;10.72;64.28
70830;SHT30;58451;51.550;7.208;2023-05-20T03:01:09;10.70;64.78
70830;SHT30;58451;51.550;7.208;2023-05-20T03:02:41;10.69;64.63
70830;SHT30;58451;51.550;7.208;2023-05-20T03:04:13;10.68;64.63
70830;SHT30;58451;51.550;7.208;2023-05-20T03:05:45;10.66;64.53
70830;SHT30;58451;51.550;7.208;2023-05-20T03:07:16;10.66;64.53
70830;SHT30;58451;51.550;7.208;2023-05-20T03:08:50;10.65;64.70
70830;SHT30;58451;51.550;7.208;2023-05-20T03:10:22;10.63;64.70
70830;SHT30;58451;51.550;7.208;2023-05-20T03:11:54;10.62;64.65
70830;SHT30;58451;51.550;7.208;2023-05-20T03:13:25;10.60;64.72
70830;SHT30;58451;51.550;7.208;2023-05-20T03:14:58;10.61;64.80
70830;SHT30;58451;51.550;7.208;2023-05-20T03:16:31;10.60;64.85
70830;SHT30;58451;51.550;7.208;2023-05-20T03:18:06;10.58;65.00
70830;SHT30;58451;51.550;7.208;2023-05-20T03:19:41;10.57;65.50
70830;SHT30;58451;51.550;7.208;2023-05-20T03:21:13;10.57;65.40
70830;SHT30;58451;51.550;7.208;2023-05-20T03:22:45;10.56;65.38
70830;SHT30;58451;51.550;7.208;2023-05-20T03:24:16;10.55;65.37
70830;SHT30;58451;51.550;7.208;2023-05-20T03:25:49;10.54;65.40
70830;SHT30;58451;51.550;7.208;2023-05-20T03:27:22;10.54;65.40
70830;SHT30;58451;51.550;7.208;2023-05-20T03:28:57;10.53;65.47
70830;SHT30;58451;51.550;7.208;2023-05-20T03:30:29;10.52;65.53
70830;SHT30;58451;51.550;7.208;2023-05-20T03:32:01;10.52;65.62
70830;SHT30;58451;51.550;7.208;2023-05-20T03:33:34;10.52;65.80
70830;SHT30;58451;51.550;7.208;2023-05-20T03:35:06;10.52;65.83
70830;SHT30;58451;51.550;7.208;2023-05-20T03:36:39;10.51;65.90
70830;SHT30;58451;51.550;7.208;2023-05-20T03:38:11;10.51;65.93
70830;SHT30;58451;51.550;7.208;2023-05-20T03:39:43;10.52;66.02
70830;SHT30;58451;51.550;7.208;2023-05-20T03:41:15;10.52;66.05
70830;SHT30;58451;51.550;7.208;2023-05-20T03:42:48;10.53;66.13
70830;SHT30;58451;51.550;7.208;2023-05-20T03:44:22;10.54;66.27
70830;SHT30;58451;51.550;7.208;2023-05-20T03:45:54;10.53;66.22
70830;SHT30;58451;51.550;7.208;2023-05-20T03:47:27;10.54;66.33
70830;SHT30;58451;51.550;7.208;2023-05-20T03:48:59;10.55;66.43
70830;SHT30;58451;51.550;7.208;2023-05-20T03:50:32;10.56;66.50
70830;SHT30;58451;51.550;7.208;2023-05-20T03:52:04;10.58;66.52
70830;SHT30;58451;51.550;7.208;2023-05-20T03:53:36;10.60;66.57
70830;SHT30;58451;51.550;7.208;2023-05-20T03:55:08;10.60;66.52
70830;SHT30;58451;51.550;7.208;2023-05-20T03:56:40;10.61;66.55
70830;SHT30;58451;51.550;7.208;2023-05-20T03:58:13;10.64;66.62
70830;SHT30;58451;51.550;7.208;2023-05-20T03:59:46;10.66;66.67
70830;SHT30;58451;51.550;7.208;2023-05-20T04:01:18;10.68;66.77
70830;SHT30;58451;51.550;7.208;2023-05-20T04:02:50;10.70;66.88
70830;SHT30;58451;51.550;7.208;2023-05-20T04:04:22;10.73;66.83
70830;SHT30;58451;51.550;7.208;2023-05-20T04:05:54;10.75;66.82
70830;SHT30;58451;51.550;7.208;2023-05-20T04:07:26;10.78;66.95
70830;SHT30;58451;51.550;7.208;2023-05-20T04:09:00;10.81;66.87
70830;SHT30;58451;51.550;7.208;2023-05-20T04:10:32;10.85;66.87
70830;SHT30;58451;51.550;7.208;2023-05-20T04:12:04;10.89;66.83
70830;SHT30;58451;51.550;7.208;2023-05-20T04:13:37;10.92;66.75
70830;SHT30;58451;51.550;7.208;2023-05-20T04:15:09;10.97;66.87
70830;SHT30;58451;51.550;7.208;2023-05-20T04:16:52;11.01;66.80
70830;SHT30;58451;51.550;7.208;2023-05-20T04:18:24;11.06;66.97
70830;SHT30;58451;51.550;7.208;2023-05-20T04:19:56;11.10;67.03
70830;SHT30;58451;51.550;7.208;2023-05-20T04:21:30;11.15;67.03
70830;SHT30;58451;51.550;7.208;2023-05-20T04:23:02;11.20;67.22
70830;SHT30;58451;51.550;7.208;2023-05-20T04:24:34;11.26;67.25
70830;SHT30;58451;51.550;7.208;2023-05-20T04:26:06;11.32;67.03
70830;SHT30;58451;51.550;7.208;2023-05-20T04:27:38;11.38;66.87
70830;SHT30;58451;51.550;7.208;2023-05-20T04:29:10;11.45;66.83
70830;SHT30;58451;51.550;7.208;2023-05-20T04:30:42;11.51;66.93
70830;SHT30;58451;51.550;7.208;2023-05-20T04:32:16;11.56;66.78
70830;SHT30;58451;51.550;7.208;2023-05-20T04:33:51;11.65;67.00
70830;SHT30;58451;51.550;7.208;2023-05-20T04:35:24;11.70;66.82
70830;SHT30;58451;51.550;7.208;2023-05-20T04:36:56;11.77;66.70
70830;SHT30;58451;51.550;7.208;2023-05-20T04:38:28;11.83;66.78
70830;SHT30;58451;51.550;7.208;2023-05-20T04:40:00;11.89;66.70
70830;SHT30;58451;51.550;7.208;2023-05-20T04:41:33;11.94;66.80
70830;SHT30;58451;51.550;7.208;2023-05-20T04:43:06;11.98;66.57
70830;SHT30;58451;51.550;7.208;2023-05-20T04:44:38;12.03;66.52
70830;SHT30;58451;51.550;7.208;2023-05-20T04:46:12;12.09;66.48
70830;SHT30;58451;51.550;7.208;2023-05-20T04:47:46;12.14;66.35
70830;SHT30;58451;51.550;7.208;2023-05-20T04:49:18;12.20;66.22
70830;SHT30;58451;51.550;7.208;2023-05-20T04:50:50;12.27;66.07
70830;SHT30;58451;51.550;7.208;2023-05-20T04:52:25;12.36;65.98
70830;SHT30;58451;51.550;7.208;2023-05-20T04:53:57;12.44;65.85
70830;SHT30;58451;51.550;7.208;2023-05-20T04:55:32;12.49;65.73
70830;SHT30;58451;51.550;7.208;2023-05-20T04:57:05;12.58;65.55
70830;SHT30;58451;51.550;7.208;2023-05-20T04:58:37;12.65;65.43
70830;SHT30;58451;51.550;7.208;2023-05-20T05:00:10;12.75;65.35
70830;SHT30;58451;51.550;7.208;2023-05-20T05:01:43;12.83;65.20
70830;SHT30;58451;51.550;7.208;2023-05-20T05:03:16;12.91;64.98
70830;SHT30;58451;51.550;7.208;2023-05-20T05:04:48;12.97;64.80
70830;SHT30;58451;51.550;7.208;2023-05-20T05:06:20;13.06;64.67
70830;SHT30;58451;51.550;7.208;2023-05-20T05:07:52;13.14;64.45
70830;SHT30;58451;51.550;7.208;2023-05-20T05:09:24;13.22;64.33
70830;SHT30;58451;51.550;7.208;2023-05-20T05:10:56;13.31;64.05
70830;SHT30;58451;51.550;7.208;2023-05-20T05:12:28;13.38;63.88
70830;SHT30;58451;51.550;7.208;2023-05-20T05:14:01;13.45;63.60
70830;SHT30;58451;51.550;7.208;2023-05-20T05:15:33;13.51;63.48
70830;SHT30;58451;51.550;7.208;2023-05-20T05:17:05;13.58;63.32
70830;SHT30;58451;51.550;7.208;2023-05-20T05:18:37;13.64;63.20
70830;SHT30;58451;51.550;7.208;2023-05-20T05:20:09;13.70;63.10
70830;SHT30;58451;51.550;7.208;2023-05-20T05:21:41;13.78;62.93
70830;SHT30;58451;51.550;7.208;2023-05-20T05:23:13;13.84;62.82
70830;SHT30;58451;51.550;7.208;2023-05-20T05:24:45;13.87;62.47
70830;SHT30;58451;51.550;7.208;2023-05-20T05:26:17;13.92;62.43
70830;SHT30;58451;51.550;7.208;2023-05-20T05:27:49;13.95;62.40
70830;SHT30;58451;51.550;7.208;2023-05-20T05:29:21;13.96;62.20
70830;SHT30;58451;51.550;7.208;2023-05-20T05:30:53;13.96;62.10
70830;SHT30;58451;51.550;7.208;2023-05-20T05:32:26;13.97;62.10
70830;SHT30;58451;51.550;7.208;2023-05-20T05:33:59;14.04;61.88
70830;SHT30;58451;51.550;7.208;2023-05-20T05:35:31;14.08;61.75
70830;SHT30;58451;51.550;7.208;2023-05-20T05:37:04;14.12;61.73
70830;SHT30;58451;51.550;7.208;2023-05-20T05:38:36;14.18;61.72
70830;SHT30;58451;51.550;7.208;2023-05-20T05:40:08;14.24;61.57
70830;SHT30;58451;51.550;7.208;2023-05-20T05:41:41;14.29;61.40
70830;SHT30;58451;51.550;7.208;2023-05-20T05:43:13;14.34;61.37
70830;SHT30;58451;51.550;7.208;2023-05-20T05:44:45;14.39;61.17
70830;SHT30;58451;51.550;7.208;2023-05-20T05:46:17;14.42;61.12
70830;SHT30;58451;51.550;7.208;2023-05-20T05:47:49;14.46;60.85
70830;SHT30;58451;51.550;7.208;2023-05-20T05:49:22;14.47;60.80
70830;SHT30;58451;51.550;7.208;2023-05-20T05:50:54;14.51;60.68
70830;SHT30;58451;51.550;7.208;2023-05-20T05:52:26;14.51;60.57
70830;SHT30;58451;51.550;7.208;2023-05-20T05:53:57;14.51;60.60
70830;SHT30;58451;51.550;7.208;2023-05-20T05:55:29;14.54;60.52
70830;SHT30;58451;51.550;7.208;2023-05-20T05:57:02;14.59;60.47
70830;SHT30;58451;51.550;7.208;2023-05-20T05:58:37;14.65;60.27
70830;SHT30;58451;51.550;7.208;2023-05-20T06:00:10;14.71;60.23
70830;SHT30;58451;51.550;7.208;2023-05-20T06:01:48;14.75;60.17
70830;SHT30;58451;51.550;7.208;2023-05-20T06:03:20;14.81;60.22
70830;SHT30;58451;51.550;7.208;2023-05-20T06:04:52;14.87;60.05
70830;SHT30;58451;51.550;7.208;2023-05-20T06:06:24;14.92;59.93
70830;SHT30;58451;51.550;7.208;2023-05-20T06:07:57;14.98;59.82
70830;SHT30;58451;51.550;7.208;2023-05-20T06:09:29;15.01;59.67
70830;SHT30;58451;51.550;7.208;2023-05-20T06:11:01;15.05;59.47
70830;SHT30;58451;51.550;7.208;2023-05-20T06:12:34;15.07;59.28
70830;SHT30;58451;51.550;7.208;2023-05-20T06:14:06;15.09;59.07
70830;SHT30;58451;51.550;7.208;2023-05-20T06:15:38;15.10;59.20
70830;SHT30;58451;51.550;7.208;2023-05-20T06:17:11;15.14;59.10
70830;SHT30;58451;51.550;7.208;2023-05-20T06:18:46;15.19;59.10
70830;SHT30;58451;51.550;7.208;2023-05-20T06:20:22;15.24;59.08
70830;SHT30;58451;51.550;7.208;2023-05-20T06:21:55;15.30;58.77
70830;SHT30;58451;51.550;7.208;2023-05-20T06:23:29;15.31;58.65
70830;SHT30;58451;51.550;7.208;2023-05-20T06:25:04;15.35;58.68
70830;SHT30;58451;51.550;7.208;2023-05-20T06:26:39;15.41;58.67
70830;SHT30;58451;51.550;7.208;2023-05-20T06:28:12;15.46;58.43
70830;SHT30;58451;51.550;7.208;2023-05-20T06:29:45;15.48;58.43
70830;SHT30;58451;51.550;7.208;2023-05-20T06:31:17;15.49;58.38
70830;SHT30;58451;51.550;7.208;2023-05-20T06:32:49;15.46;58.55
70830;SHT30;58451;51.550;7.208;2023-05-20T06:34:22;15.43;58.68
70830;SHT30;58451;51.550;7.208;2023-05-20T06:35:54;15.40;58.77
70830;SHT30;58451;51.550;7.208;2023-05-20T06:37:27;15.38;58.82
70830;SHT30;58451;51.550;7.208;2023-05-20T06:38:59;15.35;58.90
70830;SHT30;58451;51.550;7.208;2023-05-20T06:40:31;15.34;58.87
70830;SHT30;58451;51.550;7.208;2023-05-20T06:42:03;15.31;58.83
70830;SHT30;58451;51.550;7.208;2023-05-20T06:43:39;15.27;58.85
70830;SHT30;58451;51.550;7.208;2023-05-20T06:45:34;15.21;58.85
70830;SHT30;58451;51.550;7.208;2023-05-20T06:47:23;15.19;58.80
70830;SHT30;58451;51.550;7.208;2023-05-20T06:48:56;15.22;58.80
70830;SHT30;58451;51.550;7.208;2023-05-20T06:50:28;15.28;58.73
70830;SHT30;58451;51.550;7.208;2023-05-20T06:51:59;15.39;58.60
70830;SHT30;58451;51.550;7.208;2023-05-20T06:53:32;15.51;58.52
70830;SHT30;58451;51.550;7.208;2023-05-20T06:55:04;15.66;58.20
70830;SHT30;58451;51.550;7.208;2023-05-20T06:56:38;15.78;57.82
70830;SHT30;58451;51.550;7.208;2023-05-20T06:58:10;15.90;57.32
70830;SHT30;58451;51.550;7.208;2023-05-20T06:59:42;16.00;57.18
70830;SHT30;58451;51.550;7.208;2023-05-20T07:01:14;16.08;57.03
70830;SHT30;58451;51.550;7.208;2023-05-20T07:02:49;16.20;56.75
70830;SHT30;58451;51.550;7.208;2023-05-20T07:04:21;16.32;56.65
70830;SHT30;58451;51.550;7.208;2023-05-20T07:05:53;16.46;56.58
70830;SHT30;58451;51.550;7.208;2023-05-20T07:07:25;16.62;56.52
70830;SHT30;58451;51.550;7.208;2023-05-20T07:08:57;16.79;56.18
70830;SHT30;58451;51.550;7.208;2023-05-20T07:10:29;16.95;55.77
70830;SHT30;58451;51.550;7.208;2023-05-20T07:12:01;17.01;54.83
70830;SHT30;58451;51.550;7.208;2023-05-20T07:13:33;17.04;54.72
70830;SHT30;58451;51.550;7.208;2023-05-20T07:15:05;17.07;54.88
70830;SHT30;58451;51.550;7.208;2023-05-20T07:16:38;17.10;54.50
70830;SHT30;58451;51.550;7.208;2023-05-20T07:18:10;17.15;54.37
70830;SHT30;58451;51.550;7.208;2023-05-20T07:19:43;17.18;54.02
70830;SHT30;58451;51.550;7.208;2023-05-20T07:21:15;17.16;53.97
70830;SHT30;58451;51.550;7.208;2023-05-20T07:23:05;17.17;53.98
70830;SHT30;58451;51.550;7.208;2023-05-20T07:24:46;17.19;54.10
70830;SHT30;58451;51.550;7.208;2023-05-20T07:26:18;17.27;54.17
70830;SHT30;58451;51.550;7.208;2023-05-20T07:27:50;17.32;54.02
70830;SHT30;58451;51.550;7.208;2023-05-20T07:29:22;17.34;53.60
70830;SHT30;58451;51.550;7.208;2023-05-20T07:30:54;17.35;53.47
70830;SHT30;58451;51.550;7.208;2023-05-20T07:32:31;17.36;53.55
70830;SHT30;58451;51.550;7.208;2023-05-20T07:34:03;17.36;53.60
70830;SHT30;58451;51.550;7.208;2023-05-20T07:35:35;17.38;53.70
70830;SHT30;58451;51.550;7.208;2023-05-20T07:37:07;17.38;53.38
70830;SHT30;58451;51.550;7.208;2023-05-20T07:38:40;17.34;53.57
70830;SHT30;58451;51.550;7.208;2023-05-20T07:40:33;17.36;53.47
70830;SHT30;58451;51.550;7.208;2023-05-20T07:42:07;17.32;53.23
70830;SHT30;58451;51.550;7.208;2023-05-20T07:43:40;17.34;53.62
70830;SHT30;58451;51.550;7.208;2023-05-20T07:45:12;17.45;53.63
70830;SHT30;58451;51.550;7.208;2023-05-20T07:46:44;17.49;53.32
70830;SHT30;58451;51.550;7.208;2023-05-20T07:48:16;17.53;53.25
70830;SHT30;58451;51.550;7.208;2023-05-20T07:49:48;17.59;53.17
70830;SHT30;58451;51.550;7.208;2023-05-20T07:51:20;17.64;53.08
70830;SHT30;58451;51.550;7.208;2023-05-20T07:52:52;17.67;52.92
70830;SHT30;58451;51.550;7.208;2023-05-20T07:54:29;17.71;52.62
70830;SHT30;58451;51.550;7.208;2023-05-20T07:56:01;17.69;52.70
70830;SHT30;58451;51.550;7.208;2023-05-20T07:57:33;17.73;52.78
70830;SHT30;58451;51.550;7.208;2023-05-20T07:59:05;17.81;52.15
70830;SHT30;58451;51.550;7.208;2023-05-20T08:00:43;17.81;52.38
70830;SHT30;58451;51.550;7.208;2023-05-20T08:02:15;17.87;52.48
70830;SHT30;58451;51.550;7.208;2023-05-20T08:03:48;17.91;52.22
70830;SHT30;58451;51.550;7.208;2023-05-20T08:05:24;17.96;52.15
70830;SHT30;58451;51.550;7.208;2023-05-20T08:06:56;18.06;52.23
70830;SHT30;58451;51.550;7.208;2023-05-20T08:08:38;18.14;52.13
70830;SHT30;58451;51.550;7.208;2023-05-20T08:10:15;18.28;52.00
70830;SHT30;58451;51.550;7.208;2023-05-20T08:11:48;18.37;51.23
70830;SHT30;58451;51.550;7.208;2023-05-20T08:13:19;18.38;51.28
70830;SHT30;58451;51.550;7.208;2023-05-20T08:14:52;18.43;51.45
70830;SHT30;58451;51.550;7.208;2023-05-20T08:16:24;18.51;50.77
70830;SHT30;58451;51.550;7.208;2023-05-20T08:17:56;18.53;50.98
70830;SHT30;58451;51.550;7.208;2023-05-20T08:19:28;18.55;50.95
70830;SHT30;58451;51.550;7.208;2023-05-20T08:21:00;18.61;50.75
70830;SHT30;58451;51.550;7.208;2023-05-20T08:22:32;18.66;50.40
70830;SHT30;58451;51.550;7.208;2023-05-20T08:24:06;18.72;50.32
70830;SHT30;58451;51.550;7.208;2023-05-20T08:25:38;18.84;50.22
70830;SHT30;58451;51.550;7.208;2023-05-20T08:27:10;18.93;49.95
70830;SHT30;58451;51.550;7.208;2023-05-20T08:28:42;18.99;49.45
70830;SHT30;58451;51.550;7.208;2023-05-20T08:30:15;19.00;49.43
70830;SHT30;58451;51.550;7.208;2023-05-20T08:31:47;19.01;49.77
70830;SHT30;58451;51.550;7.208;2023-05-20T08:33:19;19.13;49.87
70830;SHT30;58451;51.550;7.208;2023-05-20T08:34:52;19.24;49.52
70830;SHT30;58451;51.550;7.208;2023-05-20T08:36:25;19.29;49.17
70830;SHT30;58451;51.550;7.208;2023-05-20T08:37:57;19.28;49.63
70830;SHT30;58451;51.550;7.208;2023-05-20T08:39:29;19.39;49.72
70830;SHT30;58451;51.550;7.208;2023-05-20T08:41:02;19.53;49.03
70830;SHT30;58451;51.550;7.208;2023-05-20T08:42:34;19.55;48.30
70830;SHT30;58451;51.550;7.208;2023-05-20T08:44:07;19.41;48.53
70830;SHT30;58451;51.550;7.208;2023-05-20T08:45:43;19.35;49.00
70830;SHT30;58451;51.550;7.208;2023-05-20T08:47:16;19.35;48.88
70830;SHT30;58451;51.550;7.208;2023-05-20T08:48:48;19.31;49.28
70830;SHT30;58451;51.550;7.208;2023-05-20T08:50:21;19.40;49.07
70830;SHT30;58451;51.550;7.208;2023-05-20T08:51:52;19.52;49.48
70830;SHT30;58451;51.550;7.208;2023-05-20T08:53:24;19.72;49.15
70830;SHT30;58451;51.550;7.208;2023-05-20T08:54:57;19.84;48.27
70830;SHT30;58451;51.550;7.208;2023-05-20T08:56:30;19.81;48.45
70830;SHT30;58451;51.550;7.208;2023-05-20T08:58:03;19.83;48.58
70830;SHT30;58451;51.550;7.208;2023-05-20T08:59:35;19.88;48.13
70830;SHT30;58451;51.550;7.208;2023-05-20T09:01:08;19.91;48.27
70830;SHT30;58451;51.550;7.208;2023-05-20T09:02:39;19.98;48.25
70830;SHT30;58451;51.550;7.208;2023-05-20T09:04:12;20.00;48.23
70830;SHT30;58451;51.550;7.208;2023-05-20T09:05:44;20.10;48.22
70830;SHT30;58451;51.550;7.208;2023-05-20T09:07:29;20.12;47.57
70830;SHT30;58451;51.550;7.208;2023-05-20T09:09:03;20.16;47.28
70830;SHT30;58451;51.550;7.208;2023-05-20T09:10:35;20.08;47.17
70830;SHT30;58451;51.550;7.208;2023-05-20T09:12:10;19.98;47.82
70830;SHT30;58451;51.550;7.208;2023-05-20T09:13:42;20.01;47.87
70830;SHT30;58451;51.550;7.208;2023-05-20T09:15:14;19.99;47.55
70830;SHT30;58451;51.550;7.208;2023-05-20T09:16:46;19.95;47.58
70830;SHT30;58451;51.550;7.208;2023-05-20T09:18:19;20.02;47.83
70830;SHT30;58451;51.550;7.208;2023-05-20T09:19:52;20.00;47.83
70830;SHT30;58451;51.550;7.208;2023-05-20T09:21:25;20.06;47.43
70830;SHT30;58451;51.550;7.208;2023-05-20T09:23:02;19.93;47.27
70830;SHT30;58451;51.550;7.208;2023-05-20T09:24:36;19.84;47.75
70830;SHT30;58451;51.550;7.208;2023-05-20T09:26:08;19.83;47.42
70830;SHT30;58451;51.550;7.208;2023-05-20T09:27:40;19.74;47.72
70830;SHT30;58451;51.550;7.208;2023-05-20T09:29:12;19.62;47.93
70830;SHT30;58451;51.550;7.208;2023-05-20T09:30:47;19.58;47.85
70830;SHT30;58451;51.550;7.208;2023-05-20T09:32:21;19.43;48.28
70830;SHT30;58451;51.550;7.208;2023-05-20T09:33:57;19.33;48.87
70830;SHT30;58451;51.550;7.208;2023-05-20T09:35:29;19.39;48.78
70830;SHT30;58451;51.550;7.208;2023-05-20T09:37:01;19.44;48.80
70830;SHT30;58451;51.550;7.208;2023-05-20T09:38:35;19.45;48.80
70830;SHT30;58451;51.550;7.208;2023-05-20T09:40:10;19.38;48.77
70830;SHT30;58451;51.550;7.208;2023-05-20T09:41:48;19.35;49.03
70830;SHT30;58451;51.550;7.208;2023-05-20T09:43:27;19.36;48.92
70830;SHT30;58451;51.550;7.208;2023-05-20T09:45:00;19.35;48.88
70830;SHT30;58451;51.550;7.208;2023-05-20T09:46:35;19.29;49.23
70830;SHT30;58451;51.550;7.208;2023-05-20T09:48:08;19.38;48.90